Terminal Aerodrome Forecast
Issued by NWS La Crosse, WI

Home | Current Version | Previous Version | Text Only | Print | Product List | Glossary On
Versions: 1 2 3 4 5 6 7 8 9 10 11 12 13 14 15 16 17 18
000
FTUS43 KARX 291428 AAB
TAFRST
TAF AMD
KRST 291428Z 2914/3012 28017G25KT P6SM SCT023 BKN035
     FM291800 28016G25KT P6SM VCSH SCT025 BKN045
     FM300300 27007KT P6SM BKN080=

USA.gov is the U.S. government's official web portal to all federal, state and local government web resources and services.